Aviation Digital Data Service (ADDS)

Output produced by METARs form (1424 UTC 30 October 2014)
found at http://aviationweather.gov/adds/metars/
 
KGMU 301120Z 3012/3112 01006KT P6SM FEW200 
     FM301800 03003KT P6SM SKC